Time;durP1;ratioP1;P1;durP2;ratioP2;P2;SDS_P1;SDS_P2;PMS_P1;PMS_P2;Temp;Humidity;BMP_temperature;BMP_pressure;BME280_temperature;BME280_humidity;BME280_pressure;Samples;Min_cycle;Max_cycle;Signal;HPM_P1;HPM_P2
2022/10/11 00:02:24;;;;;;;1.00;0.90;;;20.10;47.10;;;;;;5136491;28;20453;-9
2022/10/11 00:04:50;;;;;;;1.67;1.17;;;20.10;47.10;;;;;;5136258;28;20086;-9
2022/10/11 00:07:18;;;;;;;1.20;1.08;;;20.20;47.10;;;;;;5136291;28;20059;-9
2022/10/11 00:09:45;;;;;;;2.08;1.00;;;20.20;47.10;;;;;;5136310;28;20051;-9
2022/10/11 00:12:11;;;;;;;1.67;1.20;;;20.20;47.10;;;;;;5136336;28;20513;-9
2022/10/11 00:14:37;;;;;;;0.70;0.70;;;20.20;47.10;;;;;;5136576;28;20054;-9
2022/10/11 00:17:06;;;;;;;1.00;0.90;;;20.10;47.00;;;;;;5136363;28;20053;-10
2022/10/11 00:19:33;;;;;;;1.55;1.00;;;20.10;47.10;;;;;;5117745;28;20051;-9
2022/10/11 00:21:58;;;;;;;1.65;1.10;;;20.10;47.10;;;;;;5136492;28;20071;-9
2022/10/11 00:24:24;;;;;;;0.95;0.95;;;20.10;47.10;;;;;;5135922;28;20166;-9
2022/10/11 00:26:49;;;;;;;1.23;1.10;;;20.10;47.10;;;;;;5135926;28;20096;-9
2022/10/11 00:29:15;;;;;;;0.93;0.80;;;20.10;47.10;;;;;;5116131;28;20056;-10
2022/10/11 00:31:41;;;;;;;1.02;1.00;;;20.10;47.10;;;;;;5135868;28;20051;-9
2022/10/11 00:34:07;;;;;;;0.98;0.95;;;20.10;47.10;;;;;;5135850;28;20047;-9
2022/10/11 00:36:32;;;;;;;0.90;0.90;;;20.10;47.10;;;;;;5135768;28;20055;-9
2022/10/11 00:38:58;;;;;;;1.40;1.10;;;20.10;47.10;;;;;;5134984;27;20407;-9
2022/10/11 00:41:23;;;;;;;1.30;0.90;;;20.10;47.10;;;;;;5135866;28;20043;-9
2022/10/11 00:44:11;;;;;;;1.25;1.05;;;20.10;47.10;;;;;;5136089;28;20039;-9
2022/10/11 00:46:37;;;;;;;1.52;1.10;;;20.10;47.10;;;;;;5135990;28;20062;-9
2022/10/11 00:49:14;;;;;;;1.30;1.20;;;20.10;47.10;;;;;;5135573;28;20089;-9
2022/10/11 00:51:42;;;;;;;1.48;0.80;;;20.10;47.10;;;;;;5135548;28;20059;-9
2022/10/11 00:54:13;;;;;;;1.10;1.00;;;20.10;47.20;;;;;;5135559;28;20047;-9
2022/10/11 00:56:41;;;;;;;0.90;0.90;;;20.10;47.10;;;;;;5135565;28;20387;-9
2022/10/11 00:59:14;;;;;;;1.15;1.05;;;20.10;47.10;;;;;;5135411;28;20129;-9
2022/10/11 01:01:39;;;;;;;0.98;0.90;;;20.10;47.20;;;;;;5135714;28;20108;-9
2022/10/11 01:04:05;;;;;;;1.15;0.85;;;20.10;47.20;;;;;;5135352;28;20063;-9
2022/10/11 01:06:32;;;;;;;0.80;0.80;;;20.10;47.20;;;;;;5135649;28;20062;-9
2022/10/11 01:08:59;;;;;;;1.05;0.90;;;20.10;47.20;;;;;;5135806;28;20133;-9
2022/10/11 01:11:28;;;;;;;1.05;0.95;;;20.10;47.20;;;;;;5136074;28;20103;-9
2022/10/11 01:14:22;;;;;;;1.10;0.88;;;20.10;47.20;;;;;;5135500;28;20372;-9
2022/10/11 01:17:06;;;;;;;0.95;0.77;;;20.10;47.20;;;;;;5135055;28;20107;-10
2022/10/11 01:20:00;;;;;;;0.80;0.77;;;20.00;47.20;;;;;;5135072;28;20090;-9
2022/10/11 01:23:05;;;;;;;0.80;0.80;;;20.10;47.20;;;;;;5135253;28;20555;-9
2022/10/11 01:25:51;;;;;;;1.08;0.80;;;20.00;47.20;;;;;;5135121;28;20394;-9
2022/10/11 01:28:25;;;;;;;1.13;1.02;;;20.10;47.20;;;;;;5134739;28;20061;-9
2022/10/11 01:30:53;;;;;;;1.15;0.93;;;20.10;47.20;;;;;;5135403;28;20054;-9
2022/10/11 01:33:32;;;;;;;1.23;0.90;;;20.00;47.10;;;;;;5135556;28;20141;-9
2022/10/11 01:36:13;;;;;;;1.00;0.90;;;20.00;47.20;;;;;;5135082;28;20051;-9
2022/10/11 01:39:05;;;;;;;0.83;0.60;;;20.10;47.20;;;;;;5134755;28;20054;-9
2022/10/11 01:41:37;;;;;;;1.63;1.10;;;20.00;47.20;;;;;;5125688;28;20049;-9
2022/10/11 01:44:05;;;;;;;0.90;0.90;;;20.10;47.20;;;;;;5134681;28;20142;-9
2022/10/11 01:46:32;;;;;;;1.10;0.80;;;20.00;47.20;;;;;;5134307;28;20050;-10
2022/10/11 01:48:59;;;;;;;1.20;1.02;;;20.10;47.20;;;;;;5134734;28;20073;-9
2022/10/11 01:51:33;;;;;;;0.85;0.85;;;20.00;47.20;;;;;;5133898;28;20058;-9
2022/10/11 01:54:34;;;;;;;0.80;0.80;;;20.00;47.20;;;;;;5135220;28;20399;-9
2022/10/11 01:57:30;;;;;;;1.10;1.00;;;20.00;47.20;;;;;;5134458;28;20047;-9
2022/10/11 02:00:18;;;;;;;0.85;0.85;;;20.00;47.20;;;;;;5134881;28;20057;-9
2022/10/11 02:03:17;;;;;;;0.85;0.85;;;20.00;47.20;;;;;;5134459;28;20603;-9
2022/10/11 02:05:55;;;;;;;1.30;1.00;;;20.00;47.20;;;;;;5134504;28;20444;-9
2022/10/11 02:08:42;;;;;;;0.82;0.82;;;20.00;47.20;;;;;;5134562;28;20095;-9
2022/10/11 02:11:30;;;;;;;1.20;0.80;;;20.00;47.20;;;;;;5134581;28;20051;-9
2022/10/11 02:13:59;;;;;;;0.80;0.77;;;20.00;47.20;;;;;;5134690;28;20469;-9
2022/10/11 02:16:35;;;;;;;1.20;1.00;;;20.00;47.20;;;;;;5134152;28;20051;-10
2022/10/11 02:19:05;;;;;;;0.80;0.80;;;20.00;47.20;;;;;;5134628;28;20387;-9
2022/10/11 02:21:34;;;;;;;0.80;0.80;;;20.00;47.20;;;;;;5134131;28;20055;-9
2022/10/11 02:24:08;;;;;;;1.52;1.00;;;20.00;47.20;;;;;;5134761;28;20142;-9
2022/10/11 02:26:38;;;;;;;1.40;1.00;;;20.00;47.30;;;;;;5134302;28;20051;-9
2022/10/11 02:29:08;;;;;;;0.80;0.80;;;20.00;47.30;;;;;;5134044;28;20411;-9
2022/10/11 02:31:35;;;;;;;1.02;0.90;;;20.00;47.20;;;;;;5134066;28;20047;-9
2022/10/11 02:34:30;;;;;;;0.85;0.85;;;20.00;47.20;;;;;;5134127;28;20080;-9
2022/10/11 02:37:12;;;;;;;1.02;0.82;;;20.00;47.30;;;;;;5103905;28;20043;-9
2022/10/11 02:39:47;;;;;;;0.80;0.80;;;20.00;47.20;;;;;;5134223;28;20043;-10
2022/10/11 02:42:32;;;;;;;1.00;0.90;;;20.00;47.20;;;;;;5134160;28;20143;-9
2022/10/11 02:45:12;;;;;;;1.75;0.90;;;20.00;47.30;;;;;;5133806;28;20050;-9
2022/10/11 02:47:38;;;;;;;0.80;0.80;;;20.00;47.20;;;;;;5134126;28;20043;-9
2022/10/11 02:50:05;;;;;;;0.80;0.80;;;20.00;47.20;;;;;;5133799;28;20078;-9
2022/10/11 02:52:31;;;;;;;0.82;0.82;;;20.10;47.10;;;;;;5134129;28;20047;-9
2022/10/11 02:54:56;;;;;;;0.80;0.80;;;20.10;47.00;;;;;;5133840;28;20471;-9
2022/10/11 02:57:22;;;;;;;0.73;0.70;;;20.20;46.90;;;;;;5134225;28;20050;-9
2022/10/11 02:59:47;;;;;;;0.75;0.75;;;20.20;46.90;;;;;;5133711;28;20063;-9
2022/10/11 03:02:13;;;;;;;0.90;0.90;;;20.20;46.70;;;;;;5133628;27;20046;-9
2022/10/11 03:04:39;;;;;;;1.10;1.00;;;20.30;46.70;;;;;;5133934;28;20058;-9
2022/10/11 03:07:05;;;;;;;1.38;0.70;;;20.30;46.70;;;;;;5133605;28;20059;-9
2022/10/11 03:09:31;;;;;;;1.50;0.80;;;20.30;46.60;;;;;;5133601;28;20092;-9
2022/10/11 03:11:57;;;;;;;0.80;0.80;;;20.40;46.60;;;;;;5133598;28;20058;-9
2022/10/11 03:14:23;;;;;;;0.80;0.80;;;20.40;46.50;;;;;;5133732;28;20043;-10
2022/10/11 03:16:49;;;;;;;0.75;0.75;;;20.40;46.50;;;;;;5133184;28;20059;-9
2022/10/11 03:19:14;;;;;;;1.08;0.98;;;20.40;46.40;;;;;;5133319;28;20100;-9
2022/10/11 03:21:40;;;;;;;1.20;1.00;;;20.50;46.30;;;;;;5133418;28;20063;-9
2022/10/11 03:24:06;;;;;;;1.23;1.13;;;20.50;46.30;;;;;;5133158;28;20052;-9
2022/10/11 03:26:31;;;;;;;0.70;0.70;;;20.50;46.20;;;;;;5133618;28;20051;-9
2022/10/11 03:28:57;;;;;;;0.73;0.70;;;20.60;46.10;;;;;;5133293;28;20543;-9
2022/10/11 03:31:22;;;;;;;0.82;0.82;;;20.60;46.10;;;;;;5133325;28;20056;-9
2022/10/11 03:33:48;;;;;;;1.02;0.90;;;20.60;46.00;;;;;;5133269;28;20047;-9
2022/10/11 03:36:14;;;;;;;0.85;0.82;;;20.60;46.00;;;;;;5133277;28;20406;-9
2022/10/11 03:38:40;;;;;;;1.00;0.70;;;20.70;46.00;;;;;;5133050;28;20054;-9
2022/10/11 03:41:06;;;;;;;0.80;0.80;;;20.60;45.90;;;;;;5133122;28;20515;-9
2022/10/11 03:43:31;;;;;;;1.00;0.88;;;20.70;45.90;;;;;;5133220;28;20176;-9
2022/10/11 03:45:57;;;;;;;0.93;0.82;;;20.70;45.90;;;;;;5133641;28;20141;-9
2022/10/11 03:48:22;;;;;;;1.10;1.00;;;20.70;45.90;;;;;;5133136;28;20070;-9
2022/10/11 03:50:48;;;;;;;0.80;0.80;;;20.70;45.90;;;;;;5133645;28;20146;-9
2022/10/11 03:53:14;;;;;;;1.33;0.90;;;20.70;45.90;;;;;;5133025;28;20055;-9
2022/10/11 03:55:40;;;;;;;1.02;0.80;;;20.70;45.90;;;;;;5132853;28;20474;-9
2022/10/11 03:58:06;;;;;;;1.00;0.90;;;20.70;45.80;;;;;;5133358;28;20133;-9
2022/10/11 04:00:33;;;;;;;0.90;0.80;;;20.70;45.90;;;;;;5133162;28;20475;-9
2022/10/11 04:02:59;;;;;;;1.30;1.15;;;20.70;45.90;;;;;;5132917;28;20554;-9
2022/10/11 04:05:24;;;;;;;0.80;0.80;;;20.70;45.90;;;;;;5132800;28;20079;-9
2022/10/11 04:07:50;;;;;;;1.10;0.90;;;20.70;46.00;;;;;;5132685;28;20043;-9
2022/10/11 04:10:16;;;;;;;1.38;1.20;;;20.70;46.10;;;;;;5132721;28;20483;-9
2022/10/11 04:12:42;;;;;;;1.27;0.90;;;20.60;46.20;;;;;;5133090;27;20455;-9
2022/10/11 04:15:11;;;;;;;1.05;0.95;;;20.60;46.30;;;;;;5136336;28;20066;-9
2022/10/11 04:17:37;;;;;;;1.55;1.30;;;20.60;46.40;;;;;;5136323;28;20047;-9
2022/10/11 04:20:03;;;;;;;1.75;1.30;;;20.60;46.50;;;;;;5136065;28;20143;-9
2022/10/11 04:22:29;;;;;;;0.98;0.90;;;20.60;46.50;;;;;;5136418;28;20390;-9
2022/10/11 04:24:55;;;;;;;2.25;1.30;;;20.60;46.60;;;;;;5136401;28;20047;-9
2022/10/11 04:27:20;;;;;;;2.17;1.02;;;20.60;46.60;;;;;;5136415;28;20479;-9
2022/10/11 04:29:46;;;;;;;2.50;1.52;;;20.60;46.60;;;;;;5136287;28;20077;-9
2022/10/11 04:32:11;;;;;;;1.98;1.13;;;20.50;46.60;;;;;;5136023;28;20448;-9
2022/10/11 04:34:38;;;;;;;2.05;1.23;;;20.50;47.30;;;;;;5136315;28;20043;-9
2022/10/11 04:37:04;;;;;;;1.70;1.30;;;20.50;46.80;;;;;;5136137;28;20529;-9
2022/10/11 04:39:30;;;;;;;1.85;1.27;;;20.50;46.80;;;;;;5135919;28;20051;-9
2022/10/11 04:41:55;;;;;;;1.92;1.23;;;20.40;46.70;;;;;;5135809;28;20521;-9
2022/10/11 04:44:21;;;;;;;2.33;1.48;;;20.40;46.80;;;;;;5135597;28;20043;-9
2022/10/11 04:46:46;;;;;;;1.35;1.00;;;20.40;47.40;;;;;;5135705;28;20134;-9
2022/10/11 04:49:13;;;;;;;1.48;1.30;;;20.40;46.80;;;;;;5135665;28;20058;-9
2022/10/11 04:51:38;;;;;;;1.67;1.13;;;20.40;46.80;;;;;;5135617;28;20051;-9
2022/10/11 04:54:04;;;;;;;2.10;1.20;;;20.40;46.70;;;;;;5135927;28;20054;-9
2022/10/11 04:56:30;;;;;;;1.40;1.10;;;20.40;46.70;;;;;;5135898;28;20047;-9
2022/10/11 04:58:55;;;;;;;1.50;1.00;;;20.50;46.80;;;;;;5135552;28;20078;-9
2022/10/11 05:01:21;;;;;;;1.77;0.93;;;20.50;46.80;;;;;;5135634;28;20494;-9
2022/10/11 05:03:47;;;;;;;1.27;1.17;;;20.50;46.80;;;;;;5135416;28;20043;-9
2022/10/11 05:06:13;;;;;;;1.45;1.13;;;20.50;46.30;;;;;;5135434;28;20057;-9
2022/10/11 05:08:39;;;;;;;2.20;1.38;;;20.50;46.70;;;;;;5135363;28;20059;-9
2022/10/11 05:11:11;;;;;;;1.75;1.20;;;20.50;46.80;;;;;;5135713;28;20115;-9
2022/10/11 05:13:37;;;;;;;2.13;1.35;;;20.50;46.80;;;;;;5135498;28;20376;-9
2022/10/11 05:16:03;;;;;;;1.80;1.10;;;20.50;46.70;;;;;;5135548;28;20058;-9
2022/10/11 05:18:30;;;;;;;2.47;1.48;;;20.50;46.70;;;;;;5135254;28;20159;-9
2022/10/11 05:21:07;;;;;;;1.27;1.10;;;20.50;46.80;;;;;;5135171;28;20051;-9
2022/10/11 05:23:34;;;;;;;1.50;1.17;;;20.50;46.70;;;;;;5135503;28;20082;-9
2022/10/11 05:26:00;;;;;;;2.20;1.35;;;20.50;46.70;;;;;;5135143;27;20074;-9
2022/10/11 05:28:26;;;;;;;3.55;1.33;;;20.50;46.70;;;;;;5135272;28;20039;-9
2022/10/11 05:30:52;;;;;;;1.55;1.13;;;20.50;46.70;;;;;;5135047;28;20051;-9
2022/10/11 05:33:18;;;;;;;1.65;1.17;;;20.50;46.70;;;;;;5135328;28;20085;-9
2022/10/11 05:35:43;;;;;;;2.40;1.35;;;20.50;46.70;;;;;;5135253;28;20082;-9
2022/10/11 05:38:09;;;;;;;1.40;0.98;;;20.50;46.70;;;;;;5134631;28;20047;-9
2022/10/11 05:40:36;;;;;;;1.20;1.08;;;20.50;46.70;;;;;;5134909;28;20387;-9
2022/10/11 05:43:03;;;;;;;1.73;1.08;;;20.50;46.70;;;;;;5135247;28;20467;-9
2022/10/11 05:45:28;;;;;;;1.63;1.20;;;20.50;46.70;;;;;;5134715;28;20055;-9
2022/10/11 05:47:54;;;;;;;2.03;1.35;;;20.50;46.80;;;;;;5134976;28;20394;-9
2022/10/11 05:50:19;;;;;;;1.98;1.42;;;20.50;46.80;;;;;;5134658;28;20055;-9
2022/10/11 05:52:45;;;;;;;1.98;1.13;;;20.60;46.80;;;;;;5134688;28;20394;-9
2022/10/11 05:55:10;;;;;;;1.60;1.15;;;20.60;47.30;;;;;;5134548;28;20047;-9
2022/10/11 05:57:36;;;;;;;1.00;0.90;;;20.60;46.70;;;;;;5134392;28;20100;-10
2022/10/11 06:00:03;;;;;;;1.85;1.30;;;20.60;46.70;;;;;;5134824;28;20047;-9
2022/10/11 06:02:37;;;;;;;1.90;1.10;;;20.60;46.70;;;;;;5134564;28;20043;-10
2022/10/11 06:05:03;;;;;;;1.48;1.20;;;20.60;46.60;;;;;;5134220;28;20055;-10
2022/10/11 06:07:29;;;;;;;1.77;1.20;;;20.60;46.60;;;;;;5134491;28;20059;-10
2022/10/11 06:09:54;;;;;;;1.85;1.42;;;20.70;46.50;;;;;;5134371;28;20058;-10
2022/10/11 06:12:20;;;;;;;3.17;1.48;;;20.70;46.40;;;;;;5134438;28;20058;-9
2022/10/11 06:14:47;;;;;;;1.38;1.10;;;20.80;46.40;;;;;;5134489;28;20050;-10
2022/10/11 06:17:13;;;;;;;1.27;1.00;;;20.80;46.30;;;;;;5134044;28;20415;-10
2022/10/11 06:19:39;;;;;;;1.48;1.25;;;20.80;46.30;;;;;;5133902;28;20146;-11
2022/10/11 06:22:04;;;;;;;1.52;1.25;;;20.80;46.30;;;;;;5134170;28;20099;-12
2022/10/11 06:24:30;;;;;;;2.30;1.23;;;20.80;46.20;;;;;;5134315;28;20141;-11
2022/10/11 06:26:56;;;;;;;1.67;1.20;;;20.80;46.20;;;;;;5133803;28;20055;-11
2022/10/11 06:29:21;;;;;;;1.55;1.08;;;20.90;46.20;;;;;;5133561;28;20407;-11
2022/10/11 06:31:48;;;;;;;1.23;1.13;;;20.90;46.00;;;;;;5133762;28;20058;-11
2022/10/11 06:34:14;;;;;;;1.65;1.20;;;21.00;45.90;;;;;;5133637;28;20085;-11
2022/10/11 06:36:40;;;;;;;2.47;1.38;;;21.10;45.80;;;;;;5133165;27;20088;-11
2022/10/11 06:39:06;;;;;;;1.92;1.30;;;21.10;45.70;;;;;;5133490;28;20051;-11
2022/10/11 06:41:32;;;;;;;2.30;1.23;;;21.20;45.70;;;;;;5134373;28;20047;-11
2022/10/11 06:43:58;;;;;;;4.68;1.15;;;21.10;45.60;;;;;;5133741;28;20099;-11
2022/10/11 06:46:25;;;;;;;1.80;0.98;;;21.10;45.70;;;;;;5115651;28;20440;-11
2022/10/11 06:48:51;;;;;;;2.15;1.27;;;21.10;45.70;;;;;;5133544;28;20047;-11
2022/10/11 06:51:19;;;;;;;1.25;0.98;;;21.10;45.60;;;;;;5133682;28;20414;-11
2022/10/11 06:53:54;;;;;;;2.28;1.33;;;21.20;45.40;;;;;;5133927;28;20137;-11
2022/10/11 06:56:20;;;;;;;1.85;1.20;;;21.30;45.30;;;;;;5133884;28;20054;-11
2022/10/11 06:58:46;;;;;;;2.30;1.20;;;21.40;45.10;;;;;;5133232;28;20055;-11
2022/10/11 07:01:17;;;;;;;1.70;1.17;;;21.50;45.00;;;;;;5133427;28;20051;-11
2022/10/11 07:03:44;;;;;;;2.28;1.20;;;21.50;44.90;;;;;;5133416;28;20497;-11
2022/10/11 07:06:12;;;;;;;2.30;1.60;;;21.60;44.90;;;;;;5133692;28;20051;-11
2022/10/11 07:08:38;;;;;;;1.95;1.35;;;21.60;44.80;;;;;;5133562;28;20074;-11
2022/10/11 07:11:06;;;;;;;1.60;1.33;;;21.70;44.70;;;;;;5133869;28;20093;-11
2022/10/11 07:13:32;;;;;;;1.27;1.08;;;21.90;44.10;;;;;;5133645;28;20047;-11
2022/10/11 07:16:02;;;;;;;2.00;1.58;;;22.10;43.80;;;;;;5133410;28;20058;-11
2022/10/11 07:18:28;;;;;;;1.03;0.93;;;22.00;43.90;;;;;;5133777;28;20047;-11
2022/10/11 07:20:54;;;;;;;1.40;1.02;;;21.90;44.00;;;;;;5133172;28;20386;-11
2022/10/11 07:23:20;;;;;;;1.45;1.20;;;21.90;44.00;;;;;;5133232;28;20130;-11
2022/10/11 07:25:46;;;;;;;2.15;1.35;;;21.90;44.10;;;;;;5115274;28;20081;-11
2022/10/11 07:28:13;;;;;;;1.30;1.10;;;21.90;44.10;;;;;;5133419;28;20138;-11
2022/10/11 07:30:39;;;;;;;2.40;1.42;;;21.80;44.10;;;;;;5133168;28;20499;-11
2022/10/11 07:33:05;;;;;;;3.05;1.20;;;21.90;44.20;;;;;;5133075;28;20046;-11
2022/10/11 07:35:35;;;;;;;3.03;1.30;;;21.80;44.30;;;;;;5133012;28;20138;-11
2022/10/11 07:38:01;;;;;;;2.03;1.40;;;21.80;44.40;;;;;;5133380;28;20055;-11
2022/10/11 07:40:26;;;;;;;1.75;1.40;;;21.80;44.30;;;;;;5132765;28;20123;-11
2022/10/11 07:42:52;;;;;;;2.45;1.35;;;21.80;44.40;;;;;;5132935;28;20051;-11
2022/10/11 07:45:18;;;;;;;1.65;1.23;;;21.80;44.40;;;;;;5132784;28;20075;-11
2022/10/11 07:47:45;;;;;;;2.47;1.30;;;21.80;44.40;;;;;;5132981;27;20047;-11
2022/10/11 07:50:12;;;;;;;4.07;1.60;;;21.80;44.50;;;;;;5117460;28;20099;-11
2022/10/11 07:52:38;;;;;;;2.75;1.40;;;21.70;44.50;;;;;;5136950;28;20043;-11
2022/10/11 07:55:04;;;;;;;2.50;1.23;;;21.70;44.50;;;;;;5137037;28;20051;-11
2022/10/11 07:57:30;;;;;;;2.65;1.90;;;21.70;44.60;;;;;;5136317;28;20503;-11
2022/10/11 07:59:55;;;;;;;2.45;1.27;;;21.70;44.60;;;;;;5135907;28;20058;-11
2022/10/11 08:02:21;;;;;;;1.58;1.15;;;21.60;44.60;;;;;;5136563;28;20051;-11
2022/10/11 08:04:47;;;;;;;1.73;1.60;;;21.60;44.70;;;;;;5135998;28;20122;-11
2022/10/11 08:07:13;;;;;;;3.78;1.50;;;21.60;44.80;;;;;;5135846;28;20055;-11
2022/10/11 08:09:38;;;;;;;2.25;1.20;;;21.50;44.80;;;;;;5117555;28;20047;-11
2022/10/11 08:12:06;;;;;;;2.75;1.45;;;21.50;44.90;;;;;;5135911;28;20051;-11
2022/10/11 08:14:34;;;;;;;1.42;1.17;;;21.50;45.00;;;;;;5135972;28;20062;-11
2022/10/11 08:17:01;;;;;;;3.22;1.60;;;21.50;45.00;;;;;;5136256;28;20483;-11
2022/10/11 08:19:27;;;;;;;2.63;1.35;;;21.40;45.10;;;;;;5136007;28;20047;-11
2022/10/11 08:21:52;;;;;;;3.20;1.42;;;21.40;45.10;;;;;;5135541;28;20055;-11
2022/10/11 08:24:19;;;;;;;1.65;1.33;;;21.30;45.20;;;;;;5135288;28;20143;-11
2022/10/11 08:26:46;;;;;;;1.55;1.20;;;21.30;45.30;;;;;;5135363;28;20495;-11
2022/10/11 08:29:13;;;;;;;2.72;1.25;;;21.30;45.30;;;;;;5135346;28;20046;-11
2022/10/11 08:31:39;;;;;;;2.28;1.20;;;21.20;45.40;;;;;;5135612;28;20059;-11
2022/10/11 08:34:05;;;;;;;2.28;1.35;;;21.20;45.40;;;;;;5135385;28;20061;-10
2022/10/11 08:36:31;;;;;;;1.73;1.20;;;21.30;45.50;;;;;;5135573;28;20075;-10
2022/10/11 08:38:59;;;;;;;2.17;1.30;;;21.20;45.50;;;;;;5135422;28;20278;-9
2022/10/11 08:41:48;;;;;;;1.52;1.30;;;21.20;45.50;;;;;;5135403;28;20056;-10
2022/10/11 08:44:41;;;;;;;1.50;1.20;;;21.20;45.60;;;;;;5135073;28;20443;-10
2022/10/11 08:47:24;;;;;;;2.50;1.20;;;21.20;45.70;;;;;;5135762;28;20050;-10
2022/10/11 08:49:50;;;;;;;2.63;1.50;;;21.20;45.60;;;;;;5135001;28;20054;-10
2022/10/11 08:52:44;;;;;;;1.83;1.30;;;21.20;45.70;;;;;;5135519;28;20101;-10
2022/10/11 08:55:33;;;;;;;2.60;1.23;;;21.10;45.70;;;;;;5135387;28;20138;-10
2022/10/11 08:57:59;;;;;;;2.53;1.38;;;21.10;45.70;;;;;;5135162;28;20486;-10
2022/10/11 09:00:30;;;;;;;2.65;1.45;;;21.10;45.80;;;;;;5134751;27;20050;-10
2022/10/11 09:03:13;;;;;;;2.77;1.30;;;21.10;45.80;;;;;;5135241;28;20102;-10
2022/10/11 09:06:10;;;;;;;2.00;1.48;;;21.10;45.90;;;;;;5135083;28;20070;-10
2022/10/11 09:08:50;;;;;;;3.10;1.52;;;21.00;45.90;;;;;;5135011;28;20051;-10
2022/10/11 09:11:37;;;;;;;2.65;1.60;;;21.00;45.90;;;;;;5135016;28;20055;-10
2022/10/11 09:14:24;;;;;;;2.28;1.60;;;21.10;45.90;;;;;;5135202;28;20047;-10
2022/10/11 09:17:06;;;;;;;3.10;1.58;;;21.10;45.90;;;;;;5134913;28;20054;-10
2022/10/11 09:20:00;;;;;;;2.40;1.40;;;21.10;45.90;;;;;;5134943;28;20043;-10
2022/10/11 09:22:38;;;;;;;2.75;1.27;;;21.10;45.90;;;;;;5134848;28;20043;-10
2022/10/11 09:25:33;;;;;;;3.80;1.75;;;21.10;45.90;;;;;;5134376;28;20418;-10
2022/10/11 09:28:10;;;;;;;3.08;1.60;;;21.10;46.00;;;;;;5134867;28;20383;-10
2022/10/11 09:30:44;;;;;;;2.30;1.73;;;21.00;45.90;;;;;;5134388;28;20111;-10
2022/10/11 09:33:32;;;;;;;2.83;1.55;;;21.00;45.90;;;;;;5134548;28;20051;-11
2022/10/11 09:36:00;;;;;;;3.65;1.42;;;21.10;46.00;;;;;;5135063;28;20047;-10
2022/10/11 09:38:35;;;;;;;2.10;1.30;;;21.00;45.90;;;;;;5134911;28;20043;-10
2022/10/11 09:41:13;;;;;;;2.30;1.30;;;21.00;46.00;;;;;;5134615;28;20054;-10
2022/10/11 09:43:39;;;;;;;3.28;1.60;;;21.00;46.00;;;;;;5134384;28;20111;-10
2022/10/11 09:46:27;;;;;;;2.20;1.42;;;21.00;46.00;;;;;;5134391;28;20107;-11
2022/10/11 09:48:55;;;;;;;2.47;1.73;;;21.00;46.00;;;;;;5134550;28;20059;-10
2022/10/11 09:51:24;;;;;;;1.95;1.30;;;21.00;46.00;;;;;;5134380;28;20130;-10
2022/10/11 09:53:55;;;;;;;4.15;1.85;;;21.00;46.00;;;;;;5134617;28;20051;-10
2022/10/11 09:56:23;;;;;;;2.55;1.80;;;21.00;46.00;;;;;;5134750;28;20418;-11
2022/10/11 09:59:08;;;;;;;2.40;1.58;;;21.00;46.00;;;;;;5134322;28;20051;-10
2022/10/11 10:01:34;;;;;;;2.75;1.65;;;21.00;45.90;;;;;;5114648;28;20087;-10
2022/10/11 10:04:09;;;;;;;2.42;1.63;;;21.00;45.90;;;;;;5134456;28;20118;-10
2022/10/11 10:06:36;;;;;;;2.88;1.35;;;21.00;45.90;;;;;;5134467;28;20077;-10
2022/10/11 10:09:29;;;;;;;2.67;1.60;;;21.00;45.90;;;;;;5134207;28;20058;-11
2022/10/11 10:11:56;;;;;;;3.80;1.70;;;21.10;45.80;;;;;;5132630;27;20143;-11
2022/10/11 10:14:29;;;;;;;2.70;1.67;;;21.10;45.80;;;;;;5133833;28;20047;-11
2022/10/11 10:17:15;;;;;;;3.13;1.70;;;21.10;45.80;;;;;;5133607;28;20498;-11
2022/10/11 10:19:49;;;;;;;3.17;1.77;;;21.10;45.80;;;;;;5133956;28;20062;-11
2022/10/11 10:22:20;;;;;;;2.90;1.42;;;21.20;45.80;;;;;;5133881;28;20154;-11
2022/10/11 10:24:48;;;;;;;2.53;1.75;;;21.20;45.70;;;;;;5134212;28;20047;-11
2022/10/11 10:27:22;;;;;;;2.50;1.58;;;21.20;45.70;;;;;;5133969;28;20055;-11
2022/10/11 10:30:07;;;;;;;3.33;1.65;;;21.20;45.60;;;;;;5134317;28;20092;-11
2022/10/11 10:32:44;;;;;;;2.63;1.60;;;21.20;45.70;;;;;;5133665;28;20131;-11
2022/10/11 10:35:49;;;;;;;2.92;1.70;;;21.20;45.70;;;;;;5134234;28;20043;-10
2022/10/11 10:38:36;;;;;;;2.95;1.77;;;21.10;45.70;;;;;;5133849;28;20046;-11
2022/10/11 10:41:07;;;;;;;3.40;1.60;;;21.10;45.70;;;;;;5115469;28;20154;-11
2022/10/11 10:43:35;;;;;;;4.60;1.92;;;21.10;45.80;;;;;;5133690;28;20047;-11
2022/10/11 10:46:14;;;;;;;3.47;1.60;;;21.10;45.80;;;;;;5133982;28;20482;-11
2022/10/11 10:48:49;;;;;;;3.13;1.60;;;21.10;45.80;;;;;;5133698;28;20059;-11
2022/10/11 10:51:33;;;;;;;3.13;1.85;;;21.10;45.80;;;;;;5133787;28;20487;-11
2022/10/11 10:54:08;;;;;;;3.00;1.85;;;21.10;45.70;;;;;;5133914;28;20039;-11
2022/10/11 10:56:50;;;;;;;2.53;1.58;;;21.10;45.70;;;;;;5133263;28;20130;-11
2022/10/11 10:59:55;;;;;;;2.70;1.80;;;21.20;45.70;;;;;;5133462;28;20062;-11
2022/10/11 11:02:35;;;;;;;4.82;1.85;;;21.20;45.70;;;;;;5133410;28;20490;-11
2022/10/11 11:05:39;;;;;;;5.20;1.88;;;21.20;45.70;;;;;;5133721;28;20398;-11
2022/10/11 11:08:14;;;;;;;3.85;1.90;;;21.20;46.20;;;;;;5102315;28;20047;-11
2022/10/11 11:10:52;;;;;;;2.75;1.60;;;21.20;45.60;;;;;;5133539;28;22734;-11
2022/10/11 11:13:59;;;;;;;3.08;1.50;;;21.20;45.60;;;;;;5133207;28;20082;-11
2022/10/11 11:17:12;;;;;;;2.30;1.42;;;21.20;45.60;;;;;;5133048;28;20051;-11
2022/10/11 11:20:09;;;;;;;2.33;1.40;;;21.20;45.70;;;;;;5133061;28;20372;-11
2022/10/11 11:22:49;;;;;;;2.90;1.70;;;21.20;45.80;;;;;;5119636;27;20055;-11
2022/10/11 11:26:05;;;;;;;3.67;1.55;;;21.10;45.70;;;;;;5136736;28;20455;-11
2022/10/11 11:28:56;;;;;;;2.92;1.58;;;21.20;45.70;;;;;;5127599;28;20558;-11
2022/10/11 11:31:22;;;;;;;2.22;1.25;;;21.10;45.70;;;;;;5137067;28;20096;-11
2022/10/11 11:34:09;;;;;;;2.60;1.67;;;21.10;45.70;;;;;;5136619;28;20052;-11
2022/10/11 11:36:44;;;;;;;3.70;1.98;;;21.10;45.70;;;;;;5136433;28;20552;-11
2022/10/11 11:39:24;;;;;;;3.33;1.60;;;21.10;45.70;;;;;;5136792;28;20082;-11
2022/10/11 11:42:15;;;;;;;3.05;1.55;;;21.10;45.70;;;;;;5136498;28;20078;-11
2022/10/11 11:44:48;;;;;;;1.88;1.42;;;21.10;45.80;;;;;;5136365;28;20047;-11
2022/10/11 11:47:27;;;;;;;3.17;1.95;;;21.10;45.80;;;;;;5136806;28;20509;-11
2022/10/11 11:50:23;;;;;;;2.28;1.40;;;21.10;45.80;;;;;;5136486;28;20058;-11
2022/10/11 11:53:03;;;;;;;2.05;1.40;;;21.10;45.80;;;;;;5136359;28;20133;-11
2022/10/11 11:55:34;;;;;;;2.90;1.40;;;21.10;45.80;;;;;;5136761;28;20101;-11
2022/10/11 11:58:35;;;;;;;2.30;1.30;;;21.10;45.70;;;;;;5136388;28;20486;-11
2022/10/11 12:01:14;;;;;;;;;;;21.10;45.70;;;;;;5136614;28;20099;-11
2022/10/11 12:03:44;;;;;;;2.30;1.50;;;21.10;45.70;;;;;;5136279;28;20006;-11
2022/10/11 12:06:14;;;;;;;2.13;1.35;;;21.10;45.70;;;;;;5136043;28;20051;-11
2022/10/11 12:08:46;;;;;;;2.65;1.65;;;21.10;45.70;;;;;;5136155;28;20047;-11
2022/10/11 12:11:25;;;;;;;3.65;1.40;;;21.10;45.70;;;;;;5136109;28;20539;-11
2022/10/11 12:13:53;;;;;;;2.35;1.45;;;21.10;45.60;;;;;;5136055;28;20058;-11
2022/10/11 12:16:20;;;;;;;1.80;1.20;;;21.10;45.60;;;;;;5117547;28;20483;-11
2022/10/11 12:19:01;;;;;;;3.25;1.48;;;21.10;45.60;;;;;;5135931;28;20050;-11
2022/10/11 12:21:39;;;;;;;3.30;1.60;;;21.10;45.70;;;;;;5135920;28;20100;-11
2022/10/11 12:24:22;;;;;;;4.35;1.40;;;21.10;45.70;;;;;;5135772;28;20087;-11
2022/10/11 12:27:10;;;;;;;3.88;1.63;;;21.10;45.70;;;;;;5135730;28;20150;-11
2022/10/11 12:29:49;;;;;;;2.17;1.50;;;21.10;45.70;;;;;;5132077;28;20043;-11
2022/10/11 12:32:27;;;;;;;2.17;1.50;;;21.10;45.70;;;;;;5135792;28;20405;-11
2022/10/11 12:35:32;;;;;;;4.88;1.50;;;21.10;45.70;;;;;;5135364;27;20565;-11
2022/10/11 12:38:14;;;;;;;2.17;1.70;;;21.10;45.60;;;;;;5135451;28;20066;-11
2022/10/11 12:40:41;;;;;;;2.92;1.35;;;21.20;45.70;;;;;;5135859;28;20076;-11
2022/10/11 12:43:23;;;;;;;2.55;1.75;;;21.10;45.60;;;;;;5135707;28;20074;-11
2022/10/11 12:45:49;;;;;;;2.42;1.50;;;21.20;45.70;;;;;;5135309;28;20486;-11
2022/10/11 12:48:33;;;;;;;4.25;1.48;;;21.20;45.70;;;;;;5135440;28;20051;-11
2022/10/11 12:51:29;;;;;;;3.42;1.63;;;21.20;45.70;;;;;;5135438;28;20502;-11
2022/10/11 12:54:18;;;;;;;3.28;1.75;;;21.20;45.70;;;;;;5135328;28;20416;-11
2022/10/11 12:57:12;;;;;;;2.70;1.50;;;21.20;45.70;;;;;;5135254;28;20134;-11
2022/10/11 12:59:43;;;;;;;4.60;1.50;;;21.20;45.70;;;;;;5135168;28;20499;-11
2022/10/11 13:02:39;;;;;;;1.98;1.50;;;21.10;45.70;;;;;;5135201;28;20516;-11
2022/10/11 13:05:26;;;;;;;3.85;1.70;;;21.10;45.70;;;;;;5132924;28;20503;-11
2022/10/11 13:07:55;;;;;;;2.85;1.73;;;21.10;45.70;;;;;;5135392;28;20051;-11
2022/10/11 13:10:43;;;;;;;2.25;1.50;;;21.10;45.80;;;;;;5135351;28;20047;-11
2022/10/11 13:13:21;;;;;;;3.15;1.80;;;21.10;45.80;;;;;;5135489;28;20050;-11
2022/10/11 13:15:47;;;;;;;2.38;1.63;;;21.10;45.70;;;;;;5135435;28;20085;-11
2022/10/11 13:18:15;;;;;;;2.13;1.65;;;21.10;45.70;;;;;;5135005;28;20554;-11
2022/10/11 13:20:42;;;;;;;2.83;1.30;;;21.10;45.80;;;;;;5134909;28;20058;-11